Time;durP1;ratioP1;P1;durP2;ratioP2;P2;SDS_P1;SDS_P2;PMS_P1;PMS_P2;Temp;Humidity;BMP_temperature;BMP_pressure;BME280_temperature;BME280_humidity;BME280_pressure;Samples;Min_cycle;Max_cycle;Signal;HPM_P1;HPM_P2
2024/03/10 00:01:58;;;;;;;12.93;6.88;;;;;;;7.82;100.00;97553.16;4940986;28;20038;-75
2024/03/10 00:04:25;;;;;;;11.10;5.28;;;;;;;7.91;100.00;97543.81;4966562;28;20031;-75
2024/03/10 00:06:50;;;;;;;15.73;8.82;;;;;;;7.97;100.00;97555.03;4953101;28;20410;-74
2024/03/10 00:09:16;;;;;;;18.42;9.18;;;;;;;7.95;100.00;97556.91;4963949;28;20031;-75
2024/03/10 00:11:43;;;;;;;18.88;9.50;;;;;;;7.99;100.00;97553.16;4955632;28;20491;-75
2024/03/10 00:14:09;;;;;;;12.48;6.93;;;;;;;8.00;100.00;97560.19;4973624;28;20023;-75
2024/03/10 00:16:35;;;;;;;15.25;6.75;;;;;;;8.00;100.00;97552.22;4949164;28;20040;-75
2024/03/10 00:19:03;;;;;;;18.00;8.85;;;;;;;8.07;100.00;97548.28;4946062;28;20031;-75
2024/03/10 00:21:29;;;;;;;17.42;8.57;;;;;;;8.08;100.00;97530.50;4962309;28;20118;-75
2024/03/10 00:23:54;;;;;;;13.07;7.45;;;;;;;8.08;100.00;97555.34;4963094;28;20102;-74
2024/03/10 00:26:20;;;;;;;13.80;6.38;;;;;;;8.12;100.00;97548.91;4938238;29;20035;-75
2024/03/10 00:28:49;;;;;;;14.82;7.95;;;;;;;8.14;100.00;97541.72;4949725;28;20033;-76
2024/03/10 00:31:15;;;;;;;18.83;9.38;;;;;;;8.14;100.00;97544.38;4952491;28;20626;-73
2024/03/10 00:33:42;;;;;;;15.93;8.25;;;;;;;8.12;100.00;97538.25;4956851;28;20033;-74
2024/03/10 00:36:08;;;;;;;15.38;7.35;;;;;;;8.16;100.00;97541.63;4957072;28;20022;-74
2024/03/10 00:38:34;;;;;;;18.65;9.80;;;;;;;8.16;100.00;97549.59;4937822;29;20028;-74
2024/03/10 00:40:59;;;;;;;19.73;9.25;;;;;;;8.19;100.00;97528.13;4958918;28;20037;-75
2024/03/10 00:43:25;;;;;;;15.35;7.57;;;;;;;8.38;100.00;97530.72;4968021;28;20077;-74
2024/03/10 00:45:51;;;;;;;19.30;9.88;;;;;;;8.37;100.00;97537.84;4937715;28;20079;-74
2024/03/10 00:48:20;;;;;;;20.70;10.45;;;;;;;8.34;100.00;97526.50;4958683;28;20553;-75
2024/03/10 00:50:46;;;;;;;17.33;8.85;;;;;;;8.38;100.00;97534.25;4948126;28;20126;-75
2024/03/10 00:53:13;;;;;;;14.55;7.72;;;;;;;8.29;100.00;97528.53;4950542;28;20118;-74
2024/03/10 00:55:38;;;;;;;19.42;8.88;;;;;;;8.28;100.00;97521.47;4940114;29;20475;-75
2024/03/10 00:58:04;;;;;;;18.38;10.23;;;;;;;8.27;100.00;97525.09;4950509;28;20054;-74
2024/03/10 01:00:32;;;;;;;17.52;9.23;;;;;;;8.24;100.00;97530.56;4956249;28;20105;-75
2024/03/10 01:02:58;;;;;;;17.88;10.07;;;;;;;8.23;100.00;97520.84;4955302;28;20035;-74
2024/03/10 01:05:24;;;;;;;17.02;7.13;;;;;;;8.26;100.00;97518.03;4968511;28;20045;-75
2024/03/10 01:07:50;;;;;;;20.65;9.57;;;;;;;8.21;100.00;97517.41;4966104;28;20434;-75
2024/03/10 01:10:16;;;;;;;16.65;8.70;;;;;;;8.16;100.00;97502.53;4942489;28;20345;-75
2024/03/10 01:12:42;;;;;;;20.27;9.65;;;;;;;8.26;100.00;97510.03;4955876;28;20058;-75
2024/03/10 01:15:08;;;;;;;18.10;8.07;;;;;;;8.22;100.00;97508.44;4955969;28;20450;-74
2024/03/10 01:17:34;;;;;;;14.98;8.43;;;;;;;8.24;100.00;97503.94;4972345;28;20537;-74
2024/03/10 01:20:00;;;;;;;16.98;8.55;;;;;;;8.26;100.00;97502.91;4944020;28;20333;-74
2024/03/10 01:22:26;;;;;;;17.80;8.95;;;;;;;8.40;100.00;97504.88;4953591;28;20089;-75
2024/03/10 01:24:52;;;;;;;15.02;7.53;;;;;;;8.41;100.00;97501.25;4953224;28;20126;-74
2024/03/10 01:27:18;;;;;;;17.40;8.15;;;;;;;8.48;100.00;97487.50;4964130;28;20117;-75
2024/03/10 01:29:44;;;;;;;16.60;8.68;;;;;;;8.52;100.00;97485.53;4969619;28;20027;-75
2024/03/10 01:32:09;;;;;;;16.00;8.85;;;;;;;8.50;100.00;97482.94;4939498;28;20026;-74
2024/03/10 01:34:36;;;;;;;16.10;8.65;;;;;;;8.46;100.00;97476.06;4934316;29;20037;-75
2024/03/10 01:37:02;;;;;;;14.95;8.32;;;;;;;8.54;100.00;97478.31;4968732;28;20101;-76
2024/03/10 01:39:28;;;;;;;11.95;6.60;;;;;;;8.57;100.00;97496.81;4960900;28;20035;-75
2024/03/10 01:41:54;;;;;;;9.85;5.72;;;;;;;8.57;100.00;97487.00;4958172;28;20090;-76
2024/03/10 01:44:20;;;;;;;9.73;5.28;;;;;;;8.53;100.00;97476.56;4946818;28;20031;-76
2024/03/10 01:46:47;;;;;;;15.20;7.10;;;;;;;8.52;100.00;97497.03;4960673;28;20070;-75
2024/03/10 01:49:13;;;;;;;14.70;7.75;;;;;;;8.53;100.00;97489.91;4944254;28;20031;-76
2024/03/10 01:51:41;;;;;;;14.23;4.57;;;;;;;8.43;100.00;97486.88;4947083;28;20513;-76
2024/03/10 01:54:08;;;;;;;13.65;5.80;;;;;;;8.47;100.00;97511.56;4945835;28;20047;-74
2024/03/10 01:56:35;;;;;;;10.93;5.90;;;;;;;8.39;100.00;97497.81;4938888;28;20034;-74
2024/03/10 01:59:01;;;;;;;19.63;7.85;;;;;;;8.39;100.00;97492.47;4944982;28;20042;-77
2024/03/10 02:01:28;;;;;;;17.42;8.38;;;;;;;8.35;100.00;97507.75;4952846;28;20031;-75
2024/03/10 02:03:54;;;;;;;9.10;4.95;;;;;;;8.39;100.00;97519.13;4956154;28;20467;-74
2024/03/10 02:06:21;;;;;;;17.33;8.18;;;;;;;8.35;100.00;97501.56;4965565;28;20038;-75
2024/03/10 02:08:46;;;;;;;8.90;5.63;;;;;;;8.30;100.00;97501.84;4955260;28;20031;-75
2024/03/10 02:11:12;;;;;;;9.57;4.88;;;;;;;8.25;100.00;97481.66;4951297;28;20125;-75
2024/03/10 02:13:38;;;;;;;15.43;6.40;;;;;;;8.24;100.00;97488.81;4944813;28;20025;-75
2024/03/10 02:16:05;;;;;;;14.90;8.02;;;;;;;8.33;100.00;97500.81;4970744;28;20026;-75
2024/03/10 02:18:34;;;;;;;13.60;6.38;;;;;;;8.35;100.00;97497.09;4957605;28;20030;-75
2024/03/10 02:21:01;;;;;;;12.50;5.78;;;;;;;8.32;100.00;97488.41;4944422;28;20027;-75
2024/03/10 02:23:40;;;;;;;13.85;7.43;;;;;;;8.35;100.00;97496.25;4943887;28;20027;-74
2024/03/10 02:26:07;;;;;;;16.95;8.73;;;;;;;8.36;100.00;97497.97;4963220;28;20031;-74
2024/03/10 02:28:46;;;;;;;15.90;8.10;;;;;;;8.37;100.00;97497.88;4967089;28;20110;-73
2024/03/10 02:47:36;;;;;;;19.80;8.02;;;;;;;8.34;100.00;97484.72;4963735;28;20034;-74
2024/03/10 02:50:01;;;;;;;13.98;7.40;;;;;;;8.37;100.00;97470.34;4962947;28;20034;-75
2024/03/10 02:52:27;;;;;;;13.40;7.68;;;;;;;8.47;100.00;97477.78;4944131;28;20035;-74
2024/03/10 02:54:55;;;;;;;15.43;8.98;;;;;;;8.48;100.00;97473.31;4961931;28;20047;-75
2024/03/10 02:57:22;;;;;;;10.93;6.18;;;;;;;8.52;100.00;97474.88;4946430;28;20100;-75
2024/03/10 02:59:48;;;;;;;13.73;6.35;;;;;;;8.53;100.00;97474.78;4964814;28;20174;-75
2024/03/10 03:02:18;;;;;;;15.05;7.35;;;;;;;8.58;100.00;97471.88;4956527;28;20174;-75
2024/03/10 03:04:45;;;;;;;13.02;6.28;;;;;;;8.57;100.00;97464.81;4956738;28;20038;-74
2024/03/10 03:07:11;;;;;;;14.23;6.90;;;;;;;8.60;100.00;97461.97;4943424;28;20414;-74
2024/03/10 03:09:38;;;;;;;14.02;6.95;;;;;;;8.60;100.00;97467.31;4959380;28;20136;-75
2024/03/10 03:12:04;;;;;;;11.65;6.05;;;;;;;8.66;100.00;97466.97;4955556;28;20089;-75
2024/03/10 03:14:30;;;;;;;15.07;7.93;;;;;;;8.67;100.00;97455.38;4946557;28;20030;-74
2024/03/10 03:16:56;;;;;;;14.35;6.72;;;;;;;8.65;100.00;97460.78;4951820;28;20081;-74
2024/03/10 03:19:22;;;;;;;15.15;8.50;;;;;;;8.65;100.00;97463.44;4954671;28;20066;-75
2024/03/10 03:21:48;;;;;;;15.10;7.95;;;;;;;8.68;100.00;97465.06;4949293;28;20030;-76
2024/03/10 03:24:15;;;;;;;14.30;8.00;;;;;;;8.62;100.00;97444.06;4946453;28;20041;-77
2024/03/10 03:26:42;;;;;;;14.75;8.23;;;;;;;8.73;100.00;97454.16;4957416;28;20027;-75
2024/03/10 03:29:09;;;;;;;11.95;6.47;;;;;;;8.65;100.00;97435.91;4965282;28;20027;-76
2024/03/10 03:31:35;;;;;;;13.90;7.72;;;;;;;8.77;100.00;97459.22;4954529;28;20514;-76
2024/03/10 03:34:00;;;;;;;11.77;6.10;;;;;;;8.78;100.00;97455.63;4970543;28;20019;-74
2024/03/10 03:36:26;;;;;;;17.60;8.32;;;;;;;8.74;100.00;97451.38;4938224;28;20491;-74
2024/03/10 03:38:52;;;;;;;18.13;9.15;;;;;;;8.60;100.00;97446.84;4970142;28;20066;-76
2024/03/10 03:41:18;;;;;;;22.17;10.18;;;;;;;8.41;100.00;97456.78;4957295;28;20027;-74
2024/03/10 03:43:43;;;;;;;20.92;10.13;;;;;;;8.31;100.00;97460.03;4951764;28;20027;-75
2024/03/10 03:46:09;;;;;;;18.08;10.85;;;;;;;8.22;100.00;97452.50;4966374;28;20035;-75
2024/03/10 03:48:36;;;;;;;16.45;9.95;;;;;;;8.14;100.00;97461.78;4956254;28;20077;-75
2024/03/10 03:51:02;;;;;;;18.20;10.05;;;;;;;8.12;100.00;97470.81;4964600;28;20026;-75
2024/03/10 03:53:28;;;;;;;21.48;11.05;;;;;;;8.04;100.00;97455.22;4967224;28;20043;-76
2024/03/10 03:55:54;;;;;;;23.67;11.15;;;;;;;8.01;100.00;97457.19;4936673;28;20040;-75
2024/03/10 03:58:21;;;;;;;20.27;11.18;;;;;;;7.95;100.00;97461.03;4967715;28;20030;-76
2024/03/10 04:00:47;;;;;;;23.20;12.23;;;;;;;7.95;100.00;97460.19;4967007;28;20034;-74
2024/03/10 04:03:12;;;;;;;25.45;11.77;;;;;;;7.94;100.00;97469.97;4941430;28;20035;-75
2024/03/10 04:05:40;;;;;;;22.15;11.65;;;;;;;7.90;100.00;97460.44;4960004;28;20050;-74
2024/03/10 04:08:07;;;;;;;23.00;12.60;;;;;;;7.89;100.00;97458.72;4964799;28;20023;-74
2024/03/10 04:10:35;;;;;;;19.27;10.45;;;;;;;7.90;100.00;97460.44;4940139;28;20579;-75
2024/03/10 04:13:07;;;;;;;20.15;10.90;;;;;;;7.88;100.00;97459.63;4937626;28;20023;-75
2024/03/10 04:15:36;;;;;;;20.58;10.98;;;;;;;7.85;100.00;97470.44;4956365;28;20030;-75
2024/03/10 04:18:06;;;;;;;23.77;11.23;;;;;;;7.84;100.00;97462.56;4965025;28;20078;-75
2024/03/10 04:20:35;;;;;;;20.60;11.63;;;;;;;7.81;100.00;97471.56;4953829;28;20031;-76
2024/03/10 04:23:05;;;;;;;21.95;12.15;;;;;;;7.85;100.00;97466.91;4966617;28;20469;-75
2024/03/10 04:25:34;;;;;;;23.10;11.65;;;;;;;7.83;100.00;97472.34;4957549;28;20495;-75
2024/03/10 04:28:03;;;;;;;32.80;12.52;;;;;;;7.86;100.00;97476.63;4944962;28;20030;-75
2024/03/10 04:30:29;;;;;;;30.23;11.70;;;;;;;7.90;100.00;97472.88;4955111;28;20125;-75
2024/03/10 04:32:54;;;;;;;26.98;12.27;;;;;;;7.92;100.00;97466.53;4967107;28;20510;-75
2024/03/10 04:35:20;;;;;;;22.33;12.63;;;;;;;7.84;100.00;97481.19;4960768;28;20383;-75
2024/03/10 04:37:46;;;;;;;24.73;12.77;;;;;;;7.84;100.00;97484.72;4941375;28;20066;-74
2024/03/10 04:40:12;;;;;;;25.83;13.02;;;;;;;7.75;100.00;97469.22;4943024;28;20023;-74
2024/03/10 04:42:38;;;;;;;26.48;13.52;;;;;;;7.91;100.00;97483.44;4943590;28;20038;-74
2024/03/10 04:45:06;;;;;;;50.17;21.92;;;;;;;7.87;100.00;97484.56;4955052;28;20031;-75
2024/03/10 04:47:33;;;;;;;32.88;16.52;;;;;;;7.91;100.00;97502.09;4964386;28;20042;-75
2024/03/10 04:49:59;;;;;;;32.03;15.98;;;;;;;7.95;100.00;97502.78;4950714;28;20054;-75
2024/03/10 04:52:24;;;;;;;43.75;18.58;;;;;;;7.90;100.00;97496.84;4941854;28;20023;-75
2024/03/10 04:54:50;;;;;;;28.63;14.18;;;;;;;7.87;100.00;97494.34;4956323;28;20120;-75
2024/03/10 04:57:16;;;;;;;163.20;63.88;;;;;;;7.83;100.00;97503.44;4964387;28;20062;-74
2024/03/10 04:59:41;;;;;;;32.80;17.52;;;;;;;7.84;100.00;97498.03;4961468;28;20026;-77
2024/03/10 05:02:07;;;;;;;27.20;15.02;;;;;;;7.78;100.00;97501.03;4966732;28;20030;-76
2024/03/10 05:04:33;;;;;;;29.98;15.10;;;;;;;7.79;100.00;97517.81;4960984;28;20035;-75
2024/03/10 05:06:58;;;;;;;25.60;13.63;;;;;;;7.72;100.00;97503.97;4961856;28;20106;-77
2024/03/10 05:09:24;;;;;;;25.50;13.35;;;;;;;7.75;100.00;97516.28;4954127;28;20058;-75
2024/03/10 05:11:49;;;;;;;28.05;14.15;;;;;;;7.82;100.00;97513.22;4944074;29;20561;-76
2024/03/10 05:14:15;;;;;;;26.15;13.77;;;;;;;7.84;100.00;97516.69;4957174;28;20034;-76
2024/03/10 05:16:42;;;;;;;24.08;13.60;;;;;;;7.90;100.00;97523.47;4955873;28;20031;-75
2024/03/10 05:19:09;;;;;;;18.80;10.90;;;;;;;7.95;100.00;97524.97;4953472;28;20506;-75
2024/03/10 05:21:35;;;;;;;19.02;10.25;;;;;;;8.15;100.00;97522.09;4954690;28;20019;-76
2024/03/10 05:24:00;;;;;;;27.65;13.05;;;;;;;8.36;100.00;97522.81;4949897;28;20031;-77
2024/03/10 05:26:26;;;;;;;19.65;9.18;;;;;;;8.47;100.00;97532.88;4952578;29;20055;-77
2024/03/10 05:28:52;;;;;;;36.80;18.73;;;;;;;8.60;100.00;97526.81;4959550;28;20033;-75
2024/03/10 05:31:31;;;;;;;24.85;13.65;;;;;;;8.75;100.00;97519.78;4953791;28;20503;-75
2024/03/10 05:33:59;;;;;;;48.58;23.65;;;;;;;8.77;100.00;97514.38;4958115;28;20054;-76
2024/03/10 05:36:27;;;;;;;24.27;14.52;;;;;;;8.81;100.00;97524.78;4964039;28;20137;-77
2024/03/10 05:38:54;;;;;;;15.63;9.18;;;;;;;8.78;100.00;97522.28;4938727;29;20038;-75
2024/03/10 05:41:20;;;;;;;13.27;7.40;;;;;;;8.93;100.00;97515.22;4946754;28;20063;-77
2024/03/10 05:43:46;;;;;;;19.08;11.45;;;;;;;9.07;100.00;97508.19;4972281;28;20546;-76
2024/03/10 05:46:15;;;;;;;11.00;6.63;;;;;;;9.20;100.00;97513.66;4971126;28;20039;-78
2024/03/10 05:48:41;;;;;;;21.08;12.38;;;;;;;9.34;100.00;97524.44;4942221;28;20031;-76
2024/03/10 05:52:08;;;;;;;15.75;8.27;;;;;;;9.43;100.00;97515.91;4955911;28;20031;-76
2024/03/10 05:55:39;;;;;;;18.02;10.93;;;;;;;9.59;100.00;97523.88;4922271;29;20135;-77
2024/03/10 05:59:00;;;;;;;20.00;9.70;;;;;;;9.80;100.00;97530.63;4937789;28;20039;-75
2024/03/10 06:02:13;;;;;;;17.52;8.93;;;;;;;9.93;100.00;97525.41;4933443;29;20046;-76
2024/03/10 06:05:26;;;;;;;16.75;9.25;;;;;;;10.12;100.00;97532.22;4936903;29;20188;-77
2024/03/10 06:09:05;;;;;;;16.23;8.60;;;;;;;10.09;100.00;97528.91;4933464;28;20039;-75
2024/03/10 06:12:39;;;;;;;16.67;8.68;;;;;;;10.38;100.00;97530.66;4939471;29;20130;-76
2024/03/10 06:16:12;;;;;;;14.95;8.45;;;;;;;10.50;100.00;97543.28;4910350;29;20036;-75
2024/03/10 06:26:31;;;;;;;19.83;11.48;;;;;;;13.80;100.00;97519.63;4834795;29;20053;-79
2024/03/10 06:30:21;;;;;;;14.32;7.78;;;;;;;13.41;100.00;97518.91;4827762;29;20142;-77
2024/03/10 06:33:27;;;;;;;12.13;6.50;;;;;;;13.47;100.00;97506.88;4830518;29;20045;-77
2024/03/10 06:35:58;;;;;;;12.93;7.18;;;;;;;13.31;100.00;97509.84;4800385;29;20113;-77
2024/03/10 06:39:19;;;;;;;18.65;10.60;;;;;;;14.43;100.00;97508.47;4808431;29;20042;-75
2024/03/10 06:42:48;;;;;;;23.80;12.75;;;;;;;14.28;99.31;97515.00;4785832;29;20556;-74
2024/03/10 06:46:27;;;;;;;14.85;7.72;;;;;;;14.48;97.30;97525.13;4836553;29;20437;-82
2024/03/10 06:49:34;;;;;;;13.10;7.20;;;;;;;13.81;97.93;97521.34;4839196;29;20034;-80
2024/03/10 06:52:46;;;;;;;16.55;7.82;;;;;;;13.62;99.98;97534.44;4804474;29;20042;-82
2024/03/10 06:55:23;;;;;;;19.48;10.52;;;;;;;14.90;91.75;97523.56;4820253;29;20087;-81
2024/03/10 06:58:53;;;;;;;31.20;17.73;;;;;;;16.97;70.91;97503.31;4821855;29;20082;-80
2024/03/10 07:02:12;;;;;;;14.40;7.65;;;;;;;19.11;58.55;97496.84;4867966;29;20107;-80
2024/03/10 07:05:36;;;;;;;10.98;6.85;;;;;;;19.86;53.49;97493.88;4925858;29;20057;-81
2024/03/10 07:08:50;;;;;;;24.60;12.90;;;;;;;19.26;55.43;97501.63;4925884;29;20103;-71
2024/03/10 07:12:02;;;;;;;14.82;8.52;;;;;;;18.00;61.40;97520.09;4928235;29;20047;-72
2024/03/10 07:15:30;;;;;;;12.00;8.02;;;;;;;18.12;60.02;97516.28;4916369;29;20085;-75
2024/03/10 07:19:03;;;;;;;14.73;8.90;;;;;;;19.58;56.40;97511.19;4909519;29;20051;-75
2024/03/10 07:22:30;;;;;;;16.20;9.57;;;;;;;20.90;51.98;97480.34;4967358;28;20093;-75
2024/03/10 07:25:38;;;;;;;14.82;8.82;;;;;;;20.18;52.94;97496.06;4916850;28;20055;-75
2024/03/10 07:29:08;;;;;;;7.68;5.22;;;;;;;19.59;52.28;97492.06;4943810;28;20082;-72
2024/03/10 07:32:36;;;;;;;12.07;7.38;;;;;;;19.13;53.48;97492.13;4905638;29;20048;-71
2024/03/10 07:35:55;;;;;;;9.85;5.88;;;;;;;19.41;52.94;97493.91;4903598;29;20499;-74
2024/03/10 07:38:45;;;;;;;;;;;;;;;19.92;50.73;97494.13;4909648;29;20040;-72
2024/03/10 07:41:34;;;;;;;8.63;5.63;;;;;;;20.23;50.63;97497.31;4908957;29;19919;-72
2024/03/10 07:44:58;;;;;;;18.92;11.13;;;;;;;19.96;51.55;97490.06;4909136;29;20134;-72
2024/03/10 07:48:05;;;;;;;12.23;7.22;;;;;;;21.04;49.31;97474.28;4907046;29;20048;-73
2024/03/10 07:51:16;;;;;;;56.42;29.35;;;;;;;21.08;48.67;97470.28;4817228;29;20596;-72
2024/03/10 07:57:40;;;;;;;13.02;6.25;;;;;;;19.87;51.14;97495.59;4818875;29;20484;-73
2024/03/10 08:00:51;;;;;;;9.95;6.75;;;;;;;20.45;49.27;97485.13;4818746;29;20461;-72
2024/03/10 08:04:12;;;;;;;8.88;4.60;;;;;;;20.46;48.91;97484.97;4782843;30;20059;-72
2024/03/10 08:07:30;;;;;;;8.88;5.82;;;;;;;21.06;47.96;97472.28;4782536;30;20062;-72
2024/03/10 08:10:23;;;;;;;10.07;4.88;;;;;;;20.88;48.04;97476.94;4781284;30;20055;-72
2024/03/10 08:13:13;;;;;;;6.50;4.70;;;;;;;20.22;48.15;97483.88;4764981;30;20070;-73
2024/03/10 08:16:21;;;;;;;8.32;4.70;;;;;;;19.97;49.85;97478.22;4726751;30;20056;-73
2024/03/10 08:19:54;;;;;;;9.75;5.03;;;;;;;20.51;48.18;97468.19;4718516;30;20103;-73
2024/03/10 08:23:06;;;;;;;;;;;;;;;19.58;49.68;97462.34;4731594;30;20040;-73
2024/03/10 08:26:11;;;;;;;7.45;4.63;;;;;;;17.61;55.33;97474.06;4744869;30;19918;-73
2024/03/10 08:29:30;;;;;;;119.38;45.35;;;;;;;16.79;59.53;97477.91;4771775;29;20472;-73
2024/03/10 08:32:25;;;;;;;17.80;7.45;;;;;;;15.55;72.74;97494.00;4767851;29;20127;-73
2024/03/10 08:35:54;;;;;;;9.40;5.07;;;;;;;15.65;74.92;97484.19;4814509;29;20583;-71
2024/03/10 08:38:51;;;;;;;13.93;6.70;;;;;;;15.66;75.64;97480.47;4818560;29;20085;-72
2024/03/10 08:42:03;;;;;;;13.63;7.97;;;;;;;16.17;74.06;97477.94;4860857;29;20051;-72
2024/03/10 08:45:10;;;;;;;11.20;6.90;;;;;;;18.31;61.12;97454.81;4882274;29;20052;-72
2024/03/10 08:48:15;;;;;;;10.25;5.78;;;;;;;19.70;55.18;97440.28;4892202;29;20133;-73
2024/03/10 08:54:39;;;;;;;7.80;4.38;;;;;;;21.18;49.75;97426.63;4875626;29;20051;-74
2024/03/10 08:57:55;;;;;;;8.13;5.47;;;;;;;22.05;46.61;97410.72;4866566;29;20422;-74
2024/03/10 09:01:16;;;;;;;9.52;6.22;;;;;;;21.96;48.87;97419.91;4836486;29;20060;-74
2024/03/10 09:04:23;;;;;;;6.95;4.43;;;;;;;22.92;46.87;97407.19;4834235;29;20037;-74
2024/03/10 09:07:55;;;;;;;8.57;3.83;;;;;;;22.73;43.82;97395.84;4936409;29;20082;-74
2024/03/10 09:11:06;;;;;;;10.05;5.82;;;;;;;22.50;45.07;97395.69;4879700;29;20128;-74
2024/03/10 09:14:32;;;;;;;9.95;5.28;;;;;;;22.54;44.51;97402.50;4895048;29;20043;-74
2024/03/10 09:18:04;;;;;;;9.27;5.13;;;;;;;23.29;44.04;97397.53;4922806;29;20115;-73
2024/03/10 09:21:30;;;;;;;10.57;7.20;;;;;;;24.12;42.19;97391.22;4928235;29;20040;-74
2024/03/10 09:25:07;;;;;;;6.65;4.60;;;;;;;23.39;42.55;97390.84;4925761;29;20130;-72
2024/03/10 09:28:17;;;;;;;12.30;7.10;;;;;;;22.80;43.47;97392.22;4910896;29;20040;-73
2024/03/10 09:31:20;;;;;;;11.32;5.15;;;;;;;22.78;43.48;97385.25;4915427;28;20134;-73
2024/03/10 09:35:03;;;;;;;9.75;5.03;;;;;;;22.94;44.27;97391.53;4948129;28;20050;-73
2024/03/10 09:38:34;;;;;;;11.82;6.68;;;;;;;22.07;44.47;97386.00;4958449;28;20534;-73
2024/03/10 09:41:55;;;;;;;16.23;8.35;;;;;;;20.33;46.86;97394.84;4922745;29;20040;-72
2024/03/10 09:45:19;;;;;;;9.10;4.55;;;;;;;20.15;49.93;97404.03;4929604;29;20114;-73
2024/03/10 09:48:25;;;;;;;10.25;5.70;;;;;;;21.75;46.75;97388.69;4890902;29;20375;-74
2024/03/10 09:52:06;;;;;;;9.75;5.85;;;;;;;23.91;43.63;97382.81;4865230;29;20103;-72
2024/03/10 09:55:21;;;;;;;8.00;4.43;;;;;;;25.23;41.68;97374.84;4837626;29;20041;-73
2024/03/10 09:58:54;;;;;;;12.38;5.93;;;;;;;26.64;38.06;97354.03;4835217;29;20203;-73
2024/03/10 10:01:48;;;;;;;8.27;4.88;;;;;;;26.53;38.12;97341.69;4832675;29;20521;-72
2024/03/10 10:05:06;;;;;;;10.77;5.90;;;;;;;27.00;37.66;97349.22;4835539;29;20094;-73
2024/03/10 10:07:55;;;;;;;15.07;8.00;;;;;;;28.63;35.38;97330.59;4834445;29;20117;-74
2024/03/10 10:14:35;;;;;;;6.88;3.88;;;;;;;28.98;33.37;97312.75;4820581;29;20045;-74
2024/03/10 10:17:34;;;;;;;6.85;4.45;;;;;;;27.85;34.65;97304.72;4783884;29;20111;-72
2024/03/10 10:20:45;;;;;;;5.88;3.78;;;;;;;29.36;32.89;97293.56;4790207;29;20051;-73
2024/03/10 10:27:16;;;;;;;6.53;3.47;;;;;;;29.70;32.58;97284.03;4801831;29;20054;-74
2024/03/10 10:31:05;;;;;;;7.55;3.88;;;;;;;28.48;33.33;97284.03;4798784;29;20108;-72
2024/03/10 10:34:13;;;;;;;5.15;3.50;;;;;;;27.52;33.60;97284.56;4851216;29;20553;-73
2024/03/10 10:37:20;;;;;;;10.70;4.90;;;;;;;28.38;32.93;97270.72;4856328;29;20588;-72
2024/03/10 10:41:30;;;;;;;7.45;4.30;;;;;;;27.32;34.13;97271.59;4856769;29;20129;-72
2024/03/10 10:44:08;;;;;;;5.97;4.10;;;;;;;28.75;32.83;97257.31;4861338;29;20040;-72
2024/03/10 10:47:14;;;;;;;7.65;3.88;;;;;;;27.67;33.76;97253.09;4856103;29;20046;-73
2024/03/10 10:50:53;;;;;;;7.10;4.53;;;;;;;27.82;33.36;97244.66;4856311;29;20478;-73
2024/03/10 10:54:21;;;;;;;9.40;4.43;;;;;;;28.44;33.13;97250.59;4856618;29;20060;-72
2024/03/10 10:57:14;;;;;;;11.15;4.13;;;;;;;28.64;32.56;97239.50;4856102;29;20069;-73
2024/03/10 11:00:23;;;;;;;8.65;3.72;;;;;;;29.46;31.55;97239.66;4878618;29;20051;-73
2024/03/10 11:06:52;;;;;;;7.05;4.25;;;;;;;28.17;32.53;97232.41;4908805;29;20106;-73
2024/03/10 11:10:22;;;;;;;5.53;3.65;;;;;;;28.81;32.11;97229.75;4933110;29;20040;-73
2024/03/10 11:13:41;;;;;;;8.85;3.88;;;;;;;26.65;34.62;97234.94;4930277;29;20048;-74
2024/03/10 11:16:35;;;;;;;8.52;4.30;;;;;;;26.98;33.86;97233.22;4914653;29;20103;-74
2024/03/10 11:20:09;;;;;;;13.80;3.70;;;;;;;26.82;34.05;97230.84;4913868;29;20467;-74
2024/03/10 11:23:16;;;;;;;12.32;4.43;;;;;;;28.51;33.28;97218.41;4932164;29;20041;-73
2024/03/10 11:27:00;;;;;;;9.57;3.38;;;;;;;30.66;30.38;97210.88;4875813;29;20070;-72
2024/03/10 11:30:31;;;;;;;11.07;4.00;;;;;;;25.79;35.42;97214.28;4878307;29;20072;-72
2024/03/10 11:33:44;;;;;;;9.97;4.40;;;;;;;28.39;32.50;97214.59;4839938;29;20486;-73
2024/03/10 11:37:04;;;;;;;10.82;3.72;;;;;;;27.74;33.37;97214.63;4844822;29;20041;-73
2024/03/10 11:40:17;;;;;;;14.93;8.20;;;;;;;27.01;33.99;97207.28;4855118;29;20114;-72
2024/03/10 11:43:48;;;;;;;31.90;17.92;;;;;;;27.47;34.26;97201.91;4841186;29;20304;-73
2024/03/10 11:46:56;;;;;;;12.82;4.70;;;;;;;27.28;33.42;97198.03;4827432;29;20030;-72
2024/03/10 11:50:04;;;;;;;7.55;4.05;;;;;;;25.79;35.93;97203.31;4822264;29;20512;-73
2024/03/10 11:53:30;;;;;;;12.15;3.70;;;;;;;27.23;34.25;97201.41;4826969;29;20050;-73
2024/03/10 11:56:43;;;;;;;9.50;3.40;;;;;;;27.26;33.73;97176.25;4840183;29;20046;-73
2024/03/10 12:00:15;;;;;;;9.02;3.45;;;;;;;27.48;33.15;97178.84;4828803;29;20232;-73
2024/03/10 12:03:38;;;;;;;6.95;3.22;;;;;;;25.12;36.11;97190.03;4803699;29;20192;-72
2024/03/10 12:07:20;;;;;;;9.18;3.17;;;;;;;22.51;38.39;97196.47;4804138;29;20475;-72
2024/03/10 12:10:08;;;;;;;10.25;2.83;;;;;;;23.15;38.22;97191.69;4803971;29;20511;-75
2024/03/10 12:13:47;;;;;;;7.28;2.42;;;;;;;25.14;36.45;97182.47;4782879;29;20054;-72
2024/03/10 12:17:05;;;;;;;8.13;2.63;;;;;;;26.44;34.42;97182.91;4851417;29;20121;-74
2024/03/10 12:20:12;;;;;;;11.15;3.15;;;;;;;25.75;34.17;97172.72;4882198;29;20072;-71
2024/03/10 12:23:40;;;;;;;10.43;2.70;;;;;;;25.65;34.27;97171.38;4895898;29;20045;-74
2024/03/10 12:26:53;;;;;;;6.20;2.55;;;;;;;26.39;33.45;97159.66;4896348;29;20096;-74
2024/03/10 12:30:06;;;;;;;8.10;2.38;;;;;;;27.54;31.67;97126.66;4877621;29;20055;-75
2024/03/10 12:33:26;;;;;;;13.98;5.65;;;;;;;26.91;32.90;97158.22;4888754;29;20507;-73
2024/03/10 12:36:27;;;;;;;9.82;3.35;;;;;;;28.65;31.82;97158.66;4931813;29;20036;-73
2024/03/10 12:40:14;;;;;;;7.30;3.33;;;;;;;28.24;31.33;97136.94;4930445;29;20048;-73
2024/03/10 12:43:45;;;;;;;10.32;2.83;;;;;;;27.04;32.46;97136.28;4925448;29;20058;-72
2024/03/10 12:47:08;;;;;;;11.05;2.50;;;;;;;27.85;31.77;97128.75;4933342;29;20158;-73
2024/03/10 12:50:43;;;;;;;13.63;2.80;;;;;;;25.90;34.27;97147.97;4933047;29;20511;-72
2024/03/10 12:54:06;;;;;;;7.95;3.33;;;;;;;26.57;34.04;97136.34;4912221;29;20036;-71
2024/03/10 12:57:33;;;;;;;9.20;2.90;;;;;;;25.86;34.31;97141.19;4929089;29;20619;-74
2024/03/10 13:00:52;;;;;;;6.47;3.08;;;;;;;26.53;32.67;97127.66;4916551;29;20063;-72
2024/03/10 13:07:09;;;;;;;6.47;2.67;;;;;;;26.57;32.53;97119.88;4917148;29;20099;-72
2024/03/10 13:10:42;;;;;;;12.85;2.70;;;;;;;24.33;35.38;97129.94;4924040;29;20539;-73
2024/03/10 13:13:29;;;;;;;6.20;2.35;;;;;;;24.45;35.11;97128.41;4903159;29;20046;-71
2024/03/10 13:16:37;;;;;;;9.02;2.15;;;;;;;25.74;34.01;97118.13;4917442;29;20082;-74
2024/03/10 13:20:10;;;;;;;6.03;2.33;;;;;;;25.67;34.72;97126.28;4897379;29;20044;-72
2024/03/10 13:23:34;;;;;;;8.35;3.03;;;;;;;24.43;36.36;97123.09;4857412;29;20037;-72
2024/03/10 13:26:37;;;;;;;5.47;2.53;;;;;;;23.69;37.37;97121.41;4892899;29;20489;-73
2024/03/10 13:30:00;;;;;;;9.15;3.92;;;;;;;23.12;38.27;97112.91;4880487;29;20071;-72
2024/03/10 13:33:29;;;;;;;14.60;3.50;;;;;;;23.32;38.90;97113.25;4851863;29;20122;-73
2024/03/10 13:36:19;;;;;;;14.63;3.70;;;;;;;23.27;38.61;97104.75;4838974;29;20045;-72
2024/03/10 13:39:49;;;;;;;6.43;2.83;;;;;;;22.57;39.51;97102.22;4848869;29;20056;-72
2024/03/10 13:43:01;;;;;;;11.00;3.60;;;;;;;22.44;39.93;97107.41;4855969;29;20131;-74
2024/03/10 13:46:03;;;;;;;6.82;3.40;;;;;;;22.29;40.76;97114.66;4874394;29;20040;-74
2024/03/10 13:49:09;;;;;;;10.90;3.75;;;;;;;21.75;41.65;97114.47;4858733;29;20037;-74
2024/03/10 13:52:18;;;;;;;7.95;3.85;;;;;;;21.60;42.10;97110.78;4870857;29;20089;-72
2024/03/10 13:55:20;;;;;;;7.18;4.60;;;;;;;21.32;43.10;97118.50;4860304;29;20509;-73
2024/03/10 14:09:02;;;;;;;11.27;5.47;;;;;;;21.58;44.34;97131.91;4879017;29;20051;-72
2024/03/10 14:12:15;;;;;;;12.85;6.20;;;;;;;21.34;44.64;97131.94;4878016;29;20047;-72
2024/03/10 14:15:26;;;;;;;7.70;4.55;;;;;;;20.87;45.58;97131.75;4878318;29;20534;-72
2024/03/10 14:19:04;;;;;;;8.50;4.97;;;;;;;20.61;47.06;97136.50;4878480;29;20522;-73